sensor_id;sensor_type;location;lat;lon;timestamp;P1;durP1;ratioP1;P2;durP2;ratioP2
25467;SDS011;13384;24.794;110.498;2023-03-22T00:01:46;94.83;;;54.27;;
25467;SDS011;13384;24.794;110.498;2023-03-22T00:04:19;102.93;;;56.45;;
25467;SDS011;13384;24.794;110.498;2023-03-22T00:06:51;111.97;;;61.95;;
25467;SDS011;13384;24.794;110.498;2023-03-22T00:09:22;111.65;;;61.28;;
25467;SDS011;13384;24.794;110.498;2023-03-22T00:11:55;114.30;;;61.28;;
25467;SDS011;13384;24.794;110.498;2023-03-22T00:14:27;113.85;;;63.40;;
25467;SDS011;13384;24.794;110.498;2023-03-22T00:17:19;120.30;;;65.13;;
25467;SDS011;13384;24.794;110.498;2023-03-22T00:19:51;145.63;;;88.40;;
25467;SDS011;13384;24.794;110.498;2023-03-22T00:22:23;99.43;;;54.92;;
25467;SDS011;13384;24.794;110.498;2023-03-22T00:25:09;139.57;;;73.43;;
25467;SDS011;13384;24.794;110.498;2023-03-22T00:27:42;110.65;;;57.33;;
25467;SDS011;13384;24.794;110.498;2023-03-22T00:30:14;103.03;;;53.70;;
25467;SDS011;13384;24.794;110.498;2023-03-22T00:32:47;119.43;;;59.13;;
25467;SDS011;13384;24.794;110.498;2023-03-22T00:35:40;101.80;;;54.65;;
25467;SDS011;13384;24.794;110.498;2023-03-22T00:38:22;73.90;;;41.03;;
25467;SDS011;13384;24.794;110.498;2023-03-22T00:41:10;108.28;;;57.85;;
25467;SDS011;13384;24.794;110.498;2023-03-22T00:43:44;124.22;;;62.45;;
25467;SDS011;13384;24.794;110.498;2023-03-22T00:46:17;85.07;;;47.38;;
25467;SDS011;13384;24.794;110.498;2023-03-22T00:48:51;115.35;;;59.88;;
25467;SDS011;13384;24.794;110.498;2023-03-22T00:51:43;117.60;;;59.10;;
25467;SDS011;13384;24.794;110.498;2023-03-22T00:54:16;91.80;;;48.67;;
25467;SDS011;13384;24.794;110.498;2023-03-22T00:56:48;106.40;;;57.25;;
25467;SDS011;13384;24.794;110.498;2023-03-22T00:59:26;114.13;;;59.50;;
25467;SDS011;13384;24.794;110.498;2023-03-22T01:01:59;123.22;;;61.85;;
25467;SDS011;13384;24.794;110.498;2023-03-22T01:04:34;124.03;;;61.17;;
25467;SDS011;13384;24.794;110.498;2023-03-22T01:07:08;137.15;;;66.80;;
25467;SDS011;13384;24.794;110.498;2023-03-22T01:09:40;131.32;;;65.70;;
25467;SDS011;13384;24.794;110.498;2023-03-22T01:12:14;121.40;;;64.20;;
25467;SDS011;13384;24.794;110.498;2023-03-22T01:14:47;125.88;;;65.28;;
25467;SDS011;13384;24.794;110.498;2023-03-22T01:17:31;96.00;;;50.38;;
25467;SDS011;13384;24.794;110.498;2023-03-22T01:20:04;132.63;;;66.28;;
25467;SDS011;13384;24.794;110.498;2023-03-22T01:22:52;82.22;;;46.92;;
25467;SDS011;13384;24.794;110.498;2023-03-22T01:25:25;120.05;;;63.78;;
25467;SDS011;13384;24.794;110.498;2023-03-22T01:27:56;116.88;;;61.08;;
25467;SDS011;13384;24.794;110.498;2023-03-22T01:30:34;133.30;;;68.13;;
25467;SDS011;13384;24.794;110.498;2023-03-22T01:33:08;132.88;;;68.47;;
25467;SDS011;13384;24.794;110.498;2023-03-22T01:35:41;142.82;;;70.93;;
25467;SDS011;13384;24.794;110.498;2023-03-22T01:38:35;149.10;;;73.57;;
25467;SDS011;13384;24.794;110.498;2023-03-22T01:41:08;160.37;;;74.97;;
25467;SDS011;13384;24.794;110.498;2023-03-22T01:43:42;138.82;;;68.45;;
25467;SDS011;13384;24.794;110.498;2023-03-22T01:46:14;152.77;;;71.57;;
25467;SDS011;13384;24.794;110.498;2023-03-22T01:48:46;167.60;;;74.32;;
25467;SDS011;13384;24.794;110.498;2023-03-22T01:51:23;144.02;;;69.63;;
25467;SDS011;13384;24.794;110.498;2023-03-22T01:55:00;156.82;;;71.22;;
25467;SDS011;13384;24.794;110.498;2023-03-22T01:57:32;142.32;;;67.53;;
25467;SDS011;13384;24.794;110.498;2023-03-22T02:00:14;142.10;;;69.53;;
25467;SDS011;13384;24.794;110.498;2023-03-22T02:03:05;136.55;;;67.70;;
25467;SDS011;13384;24.794;110.498;2023-03-22T02:05:45;134.50;;;66.25;;
25467;SDS011;13384;24.794;110.498;2023-03-22T02:08:47;134.25;;;61.50;;
25467;SDS011;13384;24.794;110.498;2023-03-22T02:11:35;152.07;;;67.68;;
25467;SDS011;13384;24.794;110.498;2023-03-22T02:17:47;121.68;;;60.65;;
25467;SDS011;13384;24.794;110.498;2023-03-22T02:47:37;82.65;;;48.15;;
25467;SDS011;13384;24.794;110.498;2023-03-22T02:53:56;126.63;;;64.82;;
25467;SDS011;13384;24.794;110.498;2023-03-22T02:58:52;93.07;;;53.22;;
25467;SDS011;13384;24.794;110.498;2023-03-22T03:01:33;106.72;;;56.92;;
25467;SDS011;13384;24.794;110.498;2023-03-22T03:04:20;102.63;;;56.50;;
25467;SDS011;13384;24.794;110.498;2023-03-22T03:07:03;104.60;;;63.35;;
25467;SDS011;13384;24.794;110.498;2023-03-22T03:09:39;111.00;;;59.92;;
25467;SDS011;13384;24.794;110.498;2023-03-22T03:12:14;79.60;;;46.67;;
25467;SDS011;13384;24.794;110.498;2023-03-22T03:14:53;86.32;;;52.15;;
25467;SDS011;13384;24.794;110.498;2023-03-22T03:17:30;99.40;;;56.70;;
25467;SDS011;13384;24.794;110.498;2023-03-22T03:29:20;82.82;;;49.72;;
25467;SDS011;13384;24.794;110.498;2023-03-22T03:37:40;64.78;;;42.40;;
25467;SDS011;13384;24.794;110.498;2023-03-22T03:40:42;86.18;;;52.05;;
25467;SDS011;13384;24.794;110.498;2023-03-22T03:43:21;86.72;;;52.42;;
25467;SDS011;13384;24.794;110.498;2023-03-22T03:46:16;90.60;;;52.38;;
25467;SDS011;13384;24.794;110.498;2023-03-22T03:48:50;107.03;;;67.55;;
25467;SDS011;13384;24.794;110.498;2023-03-22T03:51:48;102.22;;;56.78;;
25467;SDS011;13384;24.794;110.498;2023-03-22T03:54:25;87.50;;;48.67;;
25467;SDS011;13384;24.794;110.498;2023-03-22T03:56:58;97.47;;;54.30;;
25467;SDS011;13384;24.794;110.498;2023-03-22T03:59:31;99.90;;;54.90;;
25467;SDS011;13384;24.794;110.498;2023-03-22T04:02:13;73.35;;;44.22;;
25467;SDS011;13384;24.794;110.498;2023-03-22T04:04:47;76.10;;;50.00;;
25467;SDS011;13384;24.794;110.498;2023-03-22T04:07:21;112.15;;;69.93;;
25467;SDS011;13384;24.794;110.498;2023-03-22T04:10:20;102.70;;;65.25;;
25467;SDS011;13384;24.794;110.498;2023-03-22T04:12:52;87.30;;;50.88;;
25467;SDS011;13384;24.794;110.498;2023-03-22T04:19:49;87.53;;;50.35;;
25467;SDS011;13384;24.794;110.498;2023-03-22T04:22:26;83.43;;;49.17;;
25467;SDS011;13384;24.794;110.498;2023-03-22T04:24:58;84.25;;;47.55;;
25467;SDS011;13384;24.794;110.498;2023-03-22T04:27:34;80.15;;;45.20;;
25467;SDS011;13384;24.794;110.498;2023-03-22T04:30:28;107.95;;;60.50;;
25467;SDS011;13384;24.794;110.498;2023-03-22T04:33:33;81.85;;;48.28;;
25467;SDS011;13384;24.794;110.498;2023-03-22T04:36:16;73.90;;;44.55;;
25467;SDS011;13384;24.794;110.498;2023-03-22T04:39:13;81.53;;;49.58;;
25467;SDS011;13384;24.794;110.498;2023-03-22T04:41:55;88.40;;;50.47;;
25467;SDS011;13384;24.794;110.498;2023-03-22T04:44:28;84.07;;;51.92;;
25467;SDS011;13384;24.794;110.498;2023-03-22T04:47:03;83.95;;;48.47;;
25467;SDS011;13384;24.794;110.498;2023-03-22T04:49:43;50.33;;;31.40;;
25467;SDS011;13384;24.794;110.498;2023-03-22T04:52:45;55.38;;;36.10;;
25467;SDS011;13384;24.794;110.498;2023-03-22T04:55:44;68.78;;;41.63;;
25467;SDS011;13384;24.794;110.498;2023-03-22T04:58:16;88.15;;;50.47;;
25467;SDS011;13384;24.794;110.498;2023-03-22T05:00:51;59.08;;;36.85;;
25467;SDS011;13384;24.794;110.498;2023-03-22T05:03:45;64.18;;;39.38;;
25467;SDS011;13384;24.794;110.498;2023-03-22T05:06:44;61.03;;;38.60;;
25467;SDS011;13384;24.794;110.498;2023-03-22T05:09:29;62.80;;;38.70;;
25467;SDS011;13384;24.794;110.498;2023-03-22T05:12:22;47.83;;;29.98;;
25467;SDS011;13384;24.794;110.498;2023-03-22T05:15:25;54.25;;;35.00;;
25467;SDS011;13384;24.794;110.498;2023-03-22T05:18:20;63.63;;;36.45;;
25467;SDS011;13384;24.794;110.498;2023-03-22T05:20:59;53.10;;;33.15;;
25467;SDS011;13384;24.794;110.498;2023-03-22T05:23:33;59.17;;;36.05;;
25467;SDS011;13384;24.794;110.498;2023-03-22T05:26:17;55.17;;;35.83;;
25467;SDS011;13384;24.794;110.498;2023-03-22T05:28:54;55.95;;;35.05;;
25467;SDS011;13384;24.794;110.498;2023-03-22T05:31:55;53.45;;;35.92;;
25467;SDS011;13384;24.794;110.498;2023-03-22T05:34:29;59.47;;;36.63;;
25467;SDS011;13384;24.794;110.498;2023-03-22T05:37:26;51.28;;;31.98;;
25467;SDS011;13384;24.794;110.498;2023-03-22T05:40:00;45.13;;;30.17;;
25467;SDS011;13384;24.794;110.498;2023-03-22T05:42:43;53.95;;;30.83;;
25467;SDS011;13384;24.794;110.498;2023-03-22T05:45:23;49.67;;;32.85;;
25467;SDS011;13384;24.794;110.498;2023-03-22T05:48:23;42.28;;;27.38;;
25467;SDS011;13384;24.794;110.498;2023-03-22T05:50:56;45.25;;;28.92;;
25467;SDS011;13384;24.794;110.498;2023-03-22T05:53:31;43.15;;;27.55;;
25467;SDS011;13384;24.794;110.498;2023-03-22T05:56:17;46.97;;;28.98;;
25467;SDS011;13384;24.794;110.498;2023-03-22T05:59:26;29.02;;;20.63;;
25467;SDS011;13384;24.794;110.498;2023-03-22T06:02:01;32.95;;;21.02;;
25467;SDS011;13384;24.794;110.498;2023-03-22T06:04:34;39.33;;;24.87;;
25467;SDS011;13384;24.794;110.498;2023-03-22T06:07:15;40.55;;;25.63;;
25467;SDS011;13384;24.794;110.498;2023-03-22T06:10:17;30.63;;;20.92;;
25467;SDS011;13384;24.794;110.498;2023-03-22T06:12:50;28.27;;;16.75;;
25467;SDS011;13384;24.794;110.498;2023-03-22T06:15:28;25.15;;;16.52;;
25467;SDS011;13384;24.794;110.498;2023-03-22T06:18:49;26.50;;;18.58;;
25467;SDS011;13384;24.794;110.498;2023-03-22T06:21:21;34.92;;;20.60;;
25467;SDS011;13384;24.794;110.498;2023-03-22T06:23:54;39.75;;;25.20;;
25467;SDS011;13384;24.794;110.498;2023-03-22T06:26:25;28.60;;;18.67;;
25467;SDS011;13384;24.794;110.498;2023-03-22T06:29:11;28.27;;;18.88;;
25467;SDS011;13384;24.794;110.498;2023-03-22T06:31:44;36.67;;;22.25;;
25467;SDS011;13384;24.794;110.498;2023-03-22T06:37:14;44.40;;;22.33;;
25467;SDS011;13384;24.794;110.498;2023-03-22T06:42:24;35.20;;;21.20;;
25467;SDS011;13384;24.794;110.498;2023-03-22T06:45:06;31.33;;;21.40;;
25467;SDS011;13384;24.794;110.498;2023-03-22T06:50:37;32.83;;;19.58;;
25467;SDS011;13384;24.794;110.498;2023-03-22T06:53:18;31.42;;;18.35;;
25467;SDS011;13384;24.794;110.498;2023-03-22T06:55:50;32.40;;;19.90;;
25467;SDS011;13384;24.794;110.498;2023-03-22T06:58:45;35.65;;;18.23;;
25467;SDS011;13384;24.794;110.498;2023-03-22T07:01:22;31.85;;;16.88;;
25467;SDS011;13384;24.794;110.498;2023-03-22T07:03:56;26.60;;;18.85;;
25467;SDS011;13384;24.794;110.498;2023-03-22T07:06:28;33.15;;;19.55;;
25467;SDS011;13384;24.794;110.498;2023-03-22T07:09:06;27.75;;;17.30;;
25467;SDS011;13384;24.794;110.498;2023-03-22T07:14:11;24.35;;;16.35;;
25467;SDS011;13384;24.794;110.498;2023-03-22T07:17:04;24.80;;;16.23;;
25467;SDS011;13384;24.794;110.498;2023-03-22T07:19:40;27.58;;;16.48;;
25467;SDS011;13384;24.794;110.498;2023-03-22T07:22:32;26.45;;;17.50;;
25467;SDS011;13384;24.794;110.498;2023-03-22T07:25:29;25.90;;;15.90;;
25467;SDS011;13384;24.794;110.498;2023-03-22T07:28:18;27.52;;;17.48;;
25467;SDS011;13384;24.794;110.498;2023-03-22T07:31:04;27.23;;;16.70;;
25467;SDS011;13384;24.794;110.498;2023-03-22T07:33:57;26.38;;;17.83;;
25467;SDS011;13384;24.794;110.498;2023-03-22T07:37:02;31.88;;;18.65;;
25467;SDS011;13384;24.794;110.498;2023-03-22T07:39:37;26.30;;;18.05;;
25467;SDS011;13384;24.794;110.498;2023-03-22T07:42:14;31.73;;;18.88;;
25467;SDS011;13384;24.794;110.498;2023-03-22T07:45:05;27.13;;;18.05;;
25467;SDS011;13384;24.794;110.498;2023-03-22T07:47:44;25.08;;;17.65;;
25467;SDS011;13384;24.794;110.498;2023-03-22T07:50:42;27.02;;;16.85;;
25467;SDS011;13384;24.794;110.498;2023-03-22T07:53:14;27.25;;;18.02;;
25467;SDS011;13384;24.794;110.498;2023-03-22T07:55:46;27.45;;;17.63;;
25467;SDS011;13384;24.794;110.498;2023-03-22T07:58:18;22.52;;;16.67;;
25467;SDS011;13384;24.794;110.498;2023-03-22T08:00:50;29.10;;;17.67;;
25467;SDS011;13384;24.794;110.498;2023-03-22T08:03:41;28.15;;;17.63;;
25467;SDS011;13384;24.794;110.498;2023-03-22T08:06:50;25.42;;;16.83;;
25467;SDS011;13384;24.794;110.498;2023-03-22T08:09:27;25.63;;;17.58;;
25467;SDS011;13384;24.794;110.498;2023-03-22T08:12:00;28.63;;;18.77;;
25467;SDS011;13384;24.794;110.498;2023-03-22T08:14:35;25.38;;;17.58;;
25467;SDS011;13384;24.794;110.498;2023-03-22T08:17:14;26.30;;;18.00;;
25467;SDS011;13384;24.794;110.498;2023-03-22T08:19:47;24.88;;;17.40;;
25467;SDS011;13384;24.794;110.498;2023-03-22T08:22:23;27.23;;;18.33;;
25467;SDS011;13384;24.794;110.498;2023-03-22T08:25:21;27.95;;;19.67;;
25467;SDS011;13384;24.794;110.498;2023-03-22T08:28:05;28.90;;;18.63;;
25467;SDS011;13384;24.794;110.498;2023-03-22T08:30:49;33.78;;;19.80;;
25467;SDS011;13384;24.794;110.498;2023-03-22T08:33:22;31.58;;;20.15;;
25467;SDS011;13384;24.794;110.498;2023-03-22T08:36:07;31.92;;;20.33;;
25467;SDS011;13384;24.794;110.498;2023-03-22T08:39:06;29.77;;;20.05;;
25467;SDS011;13384;24.794;110.498;2023-03-22T08:41:47;30.05;;;19.50;;
25467;SDS011;13384;24.794;110.498;2023-03-22T08:44:20;33.15;;;20.85;;
25467;SDS011;13384;24.794;110.498;2023-03-22T08:47:01;29.13;;;20.02;;
25467;SDS011;13384;24.794;110.498;2023-03-22T08:49:57;48.15;;;25.92;;
25467;SDS011;13384;24.794;110.498;2023-03-22T08:52:54;48.30;;;30.08;;
25467;SDS011;13384;24.794;110.498;2023-03-22T08:55:34;46.45;;;29.92;;
25467;SDS011;13384;24.794;110.498;2023-03-22T08:58:57;47.58;;;31.10;;
25467;SDS011;13384;24.794;110.498;2023-03-22T09:04:16;44.60;;;25.98;;
25467;SDS011;13384;24.794;110.498;2023-03-22T09:06:49;51.92;;;32.47;;
25467;SDS011;13384;24.794;110.498;2023-03-22T09:09:23;60.33;;;34.17;;
25467;SDS011;13384;24.794;110.498;2023-03-22T09:11:57;49.30;;;32.85;;
25467;SDS011;13384;24.794;110.498;2023-03-22T09:14:30;54.08;;;33.30;;
25467;SDS011;13384;24.794;110.498;2023-03-22T09:17:04;52.47;;;33.83;;
25467;SDS011;13384;24.794;110.498;2023-03-22T09:19:35;44.03;;;29.55;;
25467;SDS011;13384;24.794;110.498;2023-03-22T09:22:51;49.50;;;32.30;;
25467;SDS011;13384;24.794;110.498;2023-03-22T09:25:24;55.22;;;33.00;;
25467;SDS011;13384;24.794;110.498;2023-03-22T09:27:55;47.40;;;31.27;;
25467;SDS011;13384;24.794;110.498;2023-03-22T09:30:28;49.97;;;34.70;;
25467;SDS011;13384;24.794;110.498;2023-03-22T09:33:02;53.47;;;33.60;;
25467;SDS011;13384;24.794;110.498;2023-03-22T09:35:55;59.08;;;35.40;;
25467;SDS011;13384;24.794;110.498;2023-03-22T09:38:33;57.13;;;34.67;;
25467;SDS011;13384;24.794;110.498;2023-03-22T09:41:15;58.08;;;35.22;;
25467;SDS011;13384;24.794;110.498;2023-03-22T09:44:02;59.78;;;37.83;;
25467;SDS011;13384;24.794;110.498;2023-03-22T09:46:47;52.40;;;35.17;;
25467;SDS011;13384;24.794;110.498;2023-03-22T09:49:29;55.40;;;37.13;;
25467;SDS011;13384;24.794;110.498;2023-03-22T09:52:26;66.68;;;39.60;;
25467;SDS011;13384;24.794;110.498;2023-03-22T09:58:49;59.38;;;38.88;;
25467;SDS011;13384;24.794;110.498;2023-03-22T10:02:52;65.13;;;40.72;;
25467;SDS011;13384;24.794;110.498;2023-03-22T10:05:56;64.88;;;38.67;;
25467;SDS011;13384;24.794;110.498;2023-03-22T10:11:41;61.53;;;38.47;;
25467;SDS011;13384;24.794;110.498;2023-03-22T10:14:23;61.55;;;35.92;;
25467;SDS011;13384;24.794;110.498;2023-03-22T10:17:02;68.60;;;41.15;;
25467;SDS011;13384;24.794;110.498;2023-03-22T10:22:40;48.58;;;31.73;;
25467;SDS011;13384;24.794;110.498;2023-03-22T10:25:30;85.10;;;48.85;;
25467;SDS011;13384;24.794;110.498;2023-03-22T10:28:22;75.10;;;44.45;;
25467;SDS011;13384;24.794;110.498;2023-03-22T10:31:15;71.78;;;42.85;;
25467;SDS011;13384;24.794;110.498;2023-03-22T10:36:28;78.80;;;46.90;;
25467;SDS011;13384;24.794;110.498;2023-03-22T10:42:10;86.80;;;50.50;;
25467;SDS011;13384;24.794;110.498;2023-03-22T10:50:54;417.00;;;200.38;;
25467;SDS011;13384;24.794;110.498;2023-03-22T10:56:13;643.65;;;336.88;;
25467;SDS011;13384;24.794;110.498;2023-03-22T10:59:05;374.85;;;189.15;;
25467;SDS011;13384;24.794;110.498;2023-03-22T11:01:43;271.40;;;132.75;;
25467;SDS011;13384;24.794;110.498;2023-03-22T11:04:17;221.93;;;110.30;;
25467;SDS011;13384;24.794;110.498;2023-03-22T11:07:15;222.02;;;113.10;;
25467;SDS011;13384;24.794;110.498;2023-03-22T11:12:52;419.48;;;181.02;;
25467;SDS011;13384;24.794;110.498;2023-03-22T11:16:17;534.60;;;234.07;;
25467;SDS011;13384;24.794;110.498;2023-03-22T11:18:51;163.32;;;81.35;;
25467;SDS011;13384;24.794;110.498;2023-03-22T11:21:48;142.13;;;69.05;;
25467;SDS011;13384;24.794;110.498;2023-03-22T11:24:24;535.45;;;229.45;;
25467;SDS011;13384;24.794;110.498;2023-03-22T11:27:03;386.60;;;173.95;;
25467;SDS011;13384;24.794;110.498;2023-03-22T11:29:46;977.55;;;479.73;;
25467;SDS011;13384;24.794;110.498;2023-03-22T11:32:30;817.85;;;408.05;;
25467;SDS011;13384;24.794;110.498;2023-03-22T11:35:21;735.05;;;360.25;;
25467;SDS011;13384;24.794;110.498;2023-03-22T11:37:58;238.07;;;108.22;;
25467;SDS011;13384;24.794;110.498;2023-03-22T11:40:33;418.75;;;189.25;;
25467;SDS011;13384;24.794;110.498;2023-03-22T11:43:15;609.67;;;294.17;;
25467;SDS011;13384;24.794;110.498;2023-03-22T11:46:19;524.38;;;238.60;;
25467;SDS011;13384;24.794;110.498;2023-03-22T11:48:59;503.13;;;234.77;;
25467;SDS011;13384;24.794;110.498;2023-03-22T11:51:37;334.58;;;154.57;;
25467;SDS011;13384;24.794;110.498;2023-03-22T11:54:40;283.15;;;130.30;;
25467;SDS011;13384;24.794;110.498;2023-03-22T11:57:25;272.95;;;127.82;;
25467;SDS011;13384;24.794;110.498;2023-03-22T12:00:22;416.30;;;196.65;;
25467;SDS011;13384;24.794;110.498;2023-03-22T12:03:22;557.88;;;279.92;;
25467;SDS011;13384;24.794;110.498;2023-03-22T12:06:23;843.20;;;449.08;;
25467;SDS011;13384;24.794;110.498;2023-03-22T12:12:30;638.10;;;313.55;;
25467;SDS011;13384;24.794;110.498;2023-03-22T12:15:30;677.30;;;343.00;;
25467;SDS011;13384;24.794;110.498;2023-03-22T12:18:41;276.15;;;131.25;;
25467;SDS011;13384;24.794;110.498;2023-03-22T12:21:52;226.30;;;111.85;;
25467;SDS011;13384;24.794;110.498;2023-03-22T12:24:30;156.10;;;79.57;;
25467;SDS011;13384;24.794;110.498;2023-03-22T12:27:15;198.10;;;97.93;;
25467;SDS011;13384;24.794;110.498;2023-03-22T12:30:33;262.33;;;124.55;;
25467;SDS011;13384;24.794;110.498;2023-03-22T12:33:39;300.63;;;143.63;;
25467;SDS011;13384;24.794;110.498;2023-03-22T12:36:40;162.82;;;87.28;;
25467;SDS011;13384;24.794;110.498;2023-03-22T12:46:24;89.20;;;52.10;;
25467;SDS011;13384;24.794;110.498;2023-03-22T12:49:05;83.55;;;47.92;;
25467;SDS011;13384;24.794;110.498;2023-03-22T12:52:50;72.75;;;44.63;;
25467;SDS011;13384;24.794;110.498;2023-03-22T12:55:46;79.50;;;42.88;;
25467;SDS011;13384;24.794;110.498;2023-03-22T12:58:47;63.53;;;39.25;;
25467;SDS011;13384;24.794;110.498;2023-03-22T13:04:56;60.70;;;36.85;;
25467;SDS011;13384;24.794;110.498;2023-03-22T13:16:57;58.72;;;34.92;;
25467;SDS011;13384;24.794;110.498;2023-03-22T13:19:51;55.92;;;32.42;;
25467;SDS011;13384;24.794;110.498;2023-03-22T13:22:27;52.33;;;31.92;;
25467;SDS011;13384;24.794;110.498;2023-03-22T13:25:56;51.63;;;28.48;;
25467;SDS011;13384;24.794;110.498;2023-03-22T13:28:40;53.53;;;31.30;;
25467;SDS011;13384;24.794;110.498;2023-03-22T13:34:38;51.60;;;29.15;;
25467;SDS011;13384;24.794;110.498;2023-03-22T13:37:46;49.90;;;29.23;;
25467;SDS011;13384;24.794;110.498;2023-03-22T13:40:53;46.03;;;28.48;;
25467;SDS011;13384;24.794;110.498;2023-03-22T13:43:46;43.95;;;25.98;;
25467;SDS011;13384;24.794;110.498;2023-03-22T13:46:45;47.67;;;27.25;;
25467;SDS011;13384;24.794;110.498;2023-03-22T13:49:48;42.80;;;25.35;;
25467;SDS011;13384;24.794;110.498;2023-03-22T13:52:32;36.92;;;23.52;;
25467;SDS011;13384;24.794;110.498;2023-03-22T14:01:27;38.58;;;23.02;;
25467;SDS011;13384;24.794;110.498;2023-03-22T14:04:09;40.53;;;22.08;;
25467;SDS011;13384;24.794;110.498;2023-03-22T14:07:57;39.40;;;21.58;;
25467;SDS011;13384;24.794;110.498;2023-03-22T14:19:22;32.72;;;18.92;;
25467;SDS011;13384;24.794;110.498;2023-03-22T14:22:04;33.40;;;18.85;;
25467;SDS011;13384;24.794;110.498;2023-03-22T14:24:42;32.45;;;19.15;;
25467;SDS011;13384;24.794;110.498;2023-03-22T14:27:15;31.33;;;19.20;;
25467;SDS011;13384;24.794;110.498;2023-03-22T14:29:50;33.45;;;19.50;;
25467;SDS011;13384;24.794;110.498;2023-03-22T14:33:06;30.70;;;18.63;;
25467;SDS011;13384;24.794;110.498;2023-03-22T14:36:03;32.90;;;19.50;;
25467;SDS011;13384;24.794;110.498;2023-03-22T14:38:40;31.48;;;19.70;;
25467;SDS011;13384;24.794;110.498;2023-03-22T14:41:19;31.33;;;18.92;;
25467;SDS011;13384;24.794;110.498;2023-03-22T14:44:11;29.92;;;18.48;;
25467;SDS011;13384;24.794;110.498;2023-03-22T14:47:22;30.10;;;18.80;;
25467;SDS011;13384;24.794;110.498;2023-03-22T14:50:05;32.85;;;18.02;;
25467;SDS011;13384;24.794;110.498;2023-03-22T14:52:59;34.63;;;19.05;;
25467;SDS011;13384;24.794;110.498;2023-03-22T14:55:31;28.90;;;17.20;;
25467;SDS011;13384;24.794;110.498;2023-03-22T14:58:24;27.80;;;17.70;;
25467;SDS011;13384;24.794;110.498;2023-03-22T15:01:22;32.85;;;17.45;;
25467;SDS011;13384;24.794;110.498;2023-03-22T15:03:55;30.77;;;17.67;;
25467;SDS011;13384;24.794;110.498;2023-03-22T15:06:52;31.85;;;19.13;;
25467;SDS011;13384;24.794;110.498;2023-03-22T15:09:28;29.85;;;16.67;;
25467;SDS011;13384;24.794;110.498;2023-03-22T15:12:13;26.33;;;16.77;;
25467;SDS011;13384;24.794;110.498;2023-03-22T15:14:44;29.92;;;17.15;;
25467;SDS011;13384;24.794;110.498;2023-03-22T15:17:16;33.20;;;17.90;;
25467;SDS011;13384;24.794;110.498;2023-03-22T15:19:49;32.25;;;17.95;;
25467;SDS011;13384;24.794;110.498;2023-03-22T15:22:20;28.10;;;17.20;;
25467;SDS011;13384;24.794;110.498;2023-03-22T15:24:58;30.17;;;17.27;;
25467;SDS011;13384;24.794;110.498;2023-03-22T15:27:47;31.80;;;18.58;;
25467;SDS011;13384;24.794;110.498;2023-03-22T15:30:42;28.95;;;17.65;;
25467;SDS011;13384;24.794;110.498;2023-03-22T15:33:22;33.05;;;18.73;;
25467;SDS011;13384;24.794;110.498;2023-03-22T15:36:03;28.17;;;17.52;;
25467;SDS011;13384;24.794;110.498;2023-03-22T15:38:54;31.50;;;19.05;;
25467;SDS011;13384;24.794;110.498;2023-03-22T15:41:39;30.85;;;17.40;;
25467;SDS011;13384;24.794;110.498;2023-03-22T15:44:26;30.95;;;17.98;;
25467;SDS011;13384;24.794;110.498;2023-03-22T15:47:48;33.15;;;17.52;;
25467;SDS011;13384;24.794;110.498;2023-03-22T15:50:41;33.97;;;19.08;;
25467;SDS011;13384;24.794;110.498;2023-03-22T15:53:23;30.92;;;17.25;;
25467;SDS011;13384;24.794;110.498;2023-03-22T15:55:58;33.03;;;17.67;;
25467;SDS011;13384;24.794;110.498;2023-03-22T15:59:21;31.63;;;18.40;;
25467;SDS011;13384;24.794;110.498;2023-03-22T16:01:59;29.83;;;17.90;;
25467;SDS011;13384;24.794;110.498;2023-03-22T16:05:07;35.22;;;18.20;;
25467;SDS011;13384;24.794;110.498;2023-03-22T16:08:00;29.58;;;18.00;;
25467;SDS011;13384;24.794;110.498;2023-03-22T16:10:33;35.33;;;18.65;;
25467;SDS011;13384;24.794;110.498;2023-03-22T16:13:23;33.88;;;17.67;;
25467;SDS011;13384;24.794;110.498;2023-03-22T16:16:39;36.30;;;18.55;;
25467;SDS011;13384;24.794;110.498;2023-03-22T16:19:31;36.00;;;17.90;;
25467;SDS011;13384;24.794;110.498;2023-03-22T16:22:08;31.65;;;18.42;;
25467;SDS011;13384;24.794;110.498;2023-03-22T16:25:19;40.45;;;17.25;;
25467;SDS011;13384;24.794;110.498;2023-03-22T16:27:52;32.17;;;17.80;;
25467;SDS011;13384;24.794;110.498;2023-03-22T16:30:32;35.78;;;17.90;;
25467;SDS011;13384;24.794;110.498;2023-03-22T16:33:03;34.25;;;18.52;;
25467;SDS011;13384;24.794;110.498;2023-03-22T16:35:33;32.78;;;17.88;;
25467;SDS011;13384;24.794;110.498;2023-03-22T16:38:03;37.20;;;18.02;;
25467;SDS011;13384;24.794;110.498;2023-03-22T16:40:33;34.97;;;18.83;;
25467;SDS011;13384;24.794;110.498;2023-03-22T16:43:07;30.58;;;17.48;;
25467;SDS011;13384;24.794;110.498;2023-03-22T16:45:37;32.90;;;19.13;;
25467;SDS011;13384;24.794;110.498;2023-03-22T16:48:07;35.75;;;19.38;;
25467;SDS011;13384;24.794;110.498;2023-03-22T16:50:38;30.65;;;18.67;;
25467;SDS011;13384;24.794;110.498;2023-03-22T16:53:14;37.13;;;19.30;;
25467;SDS011;13384;24.794;110.498;2023-03-22T16:55:45;38.58;;;20.73;;
25467;SDS011;13384;24.794;110.498;2023-03-22T16:58:34;34.35;;;18.30;;
25467;SDS011;13384;24.794;110.498;2023-03-22T17:03:41;35.22;;;19.20;;
25467;SDS011;13384;24.794;110.498;2023-03-22T17:06:15;29.38;;;17.27;;
25467;SDS011;13384;24.794;110.498;2023-03-22T17:08:47;36.40;;;18.27;;
25467;SDS011;13384;24.794;110.498;2023-03-22T17:11:19;36.20;;;19.88;;
25467;SDS011;13384;24.794;110.498;2023-03-22T17:13:52;32.85;;;18.92;;
25467;SDS011;13384;24.794;110.498;2023-03-22T17:19:15;33.17;;;18.25;;
25467;SDS011;13384;24.794;110.498;2023-03-22T17:21:44;33.83;;;18.02;;
25467;SDS011;13384;24.794;110.498;2023-03-22T17:24:14;36.03;;;19.00;;
25467;SDS011;13384;24.794;110.498;2023-03-22T17:26:45;37.28;;;19.40;;
25467;SDS011;13384;24.794;110.498;2023-03-22T17:29:14;33.90;;;19.08;;
25467;SDS011;13384;24.794;110.498;2023-03-22T17:31:46;33.10;;;19.27;;
25467;SDS011;13384;24.794;110.498;2023-03-22T17:34:16;32.97;;;18.02;;
25467;SDS011;13384;24.794;110.498;2023-03-22T17:36:46;34.13;;;18.90;;
25467;SDS011;13384;24.794;110.498;2023-03-22T17:39:17;34.45;;;18.23;;
25467;SDS011;13384;24.794;110.498;2023-03-22T17:41:47;33.83;;;19.15;;
25467;SDS011;13384;24.794;110.498;2023-03-22T17:44:17;35.05;;;19.33;;
25467;SDS011;13384;24.794;110.498;2023-03-22T17:46:47;33.75;;;19.85;;
25467;SDS011;13384;24.794;110.498;2023-03-22T17:49:19;35.58;;;19.38;;